Auburn, Nebraska
Current Conditions -  °F | °C
As of 6:15 AM on Thursday 29 Jan 2015 (Local Time) from KAFK Reporting Station
Overcast Overcast  
Wind Chill: 25°   Ceiling: 2200
Heat Index: 37°   Visibility: 10mi
Dew Point: 26°   Wind: 24mph
Humidity: 66%   Direction: 350°N
Pressure: 30.2"   Gusts: 33mph
Location:  40.39°N, 95.84°W
Report Text: KAFK 291215Z AUTO 35021G29KT 10SM OVC022 03/M03 A3020 RMK AO2 T00261032
Loading
Personal Weather Stations






























Interactive Weather Map New forecast layout! Learn more

10-Day Weather Forecast

Advertisements
Track Severe Weather on mobile